KQKS/QKS METAR and TAF weather

Enter ICAO airport designator
Station Type Date Time Source
KQKS METAR 2009/09/01 17:55 UTC NOAA

KQKS 011755Z 29007KT 9000 DU CLR 33/M01 A2972 RMK SLP054 Q1006MB 52012


Station Type Date Time Source
KQKS Decoded METAR 2009/09/01 17:55 UTC NOAA

Station name not available
Sep 01, 2009 - 01:55 PM EDT / 2009.09.01 1755 UTC
Wind: from the WNW (290 degrees) at 8 MPH (7 KT):0
Visibility: 5 mile(s):0
Sky conditions: clear
Weather: widespread dust
Temperature: 91 F (33 C)
Dew Point: 30 F (-1 C)
Relative Humidity: 11%
Pressure (altimeter): 29.72 in. Hg (1006 hPa)
Pressure tendency: 0.04 inches (1.2 hPa) higher than three hours ago
ob: KQKS 011755Z 29007KT 9000 DU CLR 33/M01 A2972 RMK SLP054 Q1006MB 52012
cycle: 18

Station Type Date Time Source
KQKS TAF UTC NOAA

Error!


Example: see airport list